Flight Track Log - Related Links

Times and Time Zones

All times are in EDT time to prevent confusion due to time zone crossing. See the FLG3458 flight status page for this flight to view local times or setup timezone preferences in your user account.

Time Position Orientation Groundspeed Altitude Reporting Facility
EDT Latitude Longitude Course Direction KTS MPH feet Rate Location/Type
Thu 05:01:33 PM 36.1431 -86.6544 55° Northeast 155 178 1,500  Level Indianapolis Center
Thu 05:02:35 PM 36.1719 -86.6033 55° Northeast 182 209 3,300 2,243 Climbing Indianapolis Center
Thu 05:03:28 PM 36.1833 -86.5167 81° East 276 318 5,800 2,727 Climbing Nashville TRACON
Thu 05:05:00 PM 36.2528 -85.9346 64° Northeast  Level FlightAware Approximate
Thu 05:05:09 PM 36.1875 -86.3478 88° East 313 360 10,300  Level Memphis Center
Thu 05:06:00 PM 36.3032 -85.7969 39° Northeast  Level FlightAware Approximate
Thu 05:06:09 PM 36.1939 -86.2242 86° East 336 387 12,000  Level Memphis Center
Thu 05:07:00 PM 36.3763 -85.6760 55° Northeast  Level FlightAware Approximate
Thu 05:07:09 PM 36.1978 -86.0953 88° East 365 420 14,200  Level Memphis Center
Thu 05:08:09 PM 36.2436 -85.9747 65° Northeast 375 432 16,700 1,900 Climbing Memphis Center
Thu 05:09:09 PM 36.2919 -85.8664 61° Northeast 375 432 18,000 1,593 Climbing Memphis Center
Thu 05:10:51 PM 36.3856 -85.6617 60° Northeast 414 476 21,000 1,720 Climbing Indianapolis Center
Thu 05:11:53 PM 36.4492 -85.5306 59° Northeast 436 502 22,700 1,597 Climbing Indianapolis Center
Thu 05:12:55 PM 36.5261 -85.3689 59° Northeast 453 521 24,300 1,597 Climbing Indianapolis Center
Thu 05:13:57 PM 36.5914 -85.2292 60° Northeast 463 533 26,000 1,355 Climbing Indianapolis Center
Thu 05:14:59 PM 36.6614 -85.0842 59° Northeast 482 555 27,100 1,113 Climbing Indianapolis Center
Thu 05:16:01 PM 36.7289 -84.9375 60° Northeast 487 560 28,300 1,161 Climbing Indianapolis Center
Thu 05:17:03 PM 36.7931 -84.7822 63° Northeast 498 573 29,500 1,008 Climbing Indianapolis Center
Thu 05:18:06 PM 36.8422 -84.6081 71° East 524 603 30,400 960 Climbing Indianapolis Center
Thu 05:19:08 PM 36.8978 -84.4108 71° East 530 610 31,500 968 Climbing Indianapolis Center
Thu 05:20:10 PM 36.9492 -84.2331 70° East 539 620 32,400 1,016 Climbing Indianapolis Center
Thu 05:21:12 PM 37.0000 -84.0547 70° East 541 623 33,600 1,065 Climbing Indianapolis Center
Thu 05:22:14 PM 37.0506 -83.8764 70° East 542 624 34,600 677 Climbing Indianapolis Center
Thu 05:23:16 PM 37.1008 -83.6986 70° East 543 625 35,000 194 Climbing Indianapolis Center
Thu 05:24:18 PM 37.1603 -83.4814 71° East 563 648 35,000  Level Indianapolis Center
Thu 05:25:20 PM 37.2111 -83.2942 71° East 567 652 35,000  Level Indianapolis Center
Thu 05:26:22 PM 37.2622 -83.1069 71° East 563 648 35,000  Level Indianapolis Center
Thu 05:27:24 PM 37.3128 -82.9222 71° East 558 642 35,000  Level Indianapolis Center
Thu 05:28:26 PM 37.3631 -82.7392 71° East 550 633 35,000  Level Indianapolis Center
Thu 05:29:28 PM 37.4117 -82.5564 71° East 549 632 35,000  Level Indianapolis Center
Thu 05:30:30 PM 37.4606 -82.3733 71° East 549 632 35,000  Level Indianapolis Center
Thu 05:31:32 PM 37.5167 -82.1633 71° East 542 624 35,000  Level Indianapolis Center
Thu 05:32:34 PM 37.5633 -81.9819 72° East 542 624 35,000  Level Indianapolis Center
Thu 05:33:36 PM 37.6092 -81.8011 72° East 540 621 35,000  Level Indianapolis Center
Thu 05:34:38 PM 37.6556 -81.6222 72° East 536 617 35,000  Level Indianapolis Center
Thu 05:35:40 PM 37.7064 -81.4261 72° East 539 620 35,000  Level Indianapolis Center
Thu 05:36:42 PM 37.7492 -81.2506 73° East 537 618 35,000  Level Indianapolis Center
Thu 05:37:50 PM 37.7869 -81.0314 78° East 523 602 35,000  Level Washington Center
Thu 05:38:50 PM 37.7967 -80.8611 86° East 530 610 35,000  Level Washington Center
Thu 05:39:50 PM 37.8092 -80.6728 85° East 535 616 35,000  Level Washington Center
Thu 05:40:50 PM 37.8211 -80.4844 85° East 535 616 35,000  Level Washington Center
Thu 05:41:50 PM 37.8347 -80.2986 85° East 535 616 35,000  Level Washington Center
Thu 05:42:50 PM 37.8469 -80.0889 86° East 535 616 35,000  Level Washington Center
Thu 05:43:50 PM 37.8603 -79.9003 85° East 535 616 35,000  Level Washington Center
Thu 05:44:50 PM 37.8711 -79.7089 86° East 535 616 35,000  Level Washington Center
Thu 05:45:50 PM 37.8839 -79.5175 85° East 535 616 35,000  Level Washington Center
Thu 05:46:50 PM 37.8939 -79.3311 86° East 535 616 35,000  Level Washington Center
Thu 05:47:50 PM 37.8997 -79.1419 88° East 535 616 35,000  Level Washington Center
Thu 05:48:50 PM 37.8650 -78.9744 105° East 527 606 35,000  Level Washington Center
Thu 05:49:50 PM 37.8156 -78.8014 110° East 522 601 35,000  Level Washington Center
Thu 05:50:50 PM 37.7656 -78.6286 110° East 522 601 35,000  Level Washington Center
Thu 05:51:50 PM 37.7158 -78.4533 110° East 527 606 35,000  Level Washington Center
Thu 05:52:50 PM 37.6636 -78.2781 111° Southeast 527 606 35,000  Level Washington Center
Thu 05:53:50 PM 37.6108 -78.1058 111° Southeast 527 606 35,000  Level Washington Center
Thu 05:54:50 PM 37.5603 -77.9314 110° East 527 606 35,000  Level Washington Center
Thu 05:55:50 PM 37.5219 -77.7547 105° East 527 606 35,000  Level Washington Center
Thu 05:56:50 PM 37.5086 -77.5450 95° East 527 606 35,000  Level Washington Center
Thu 05:57:50 PM 37.4969 -77.3561 94° East 527 606 35,000  Level Washington Center
Thu 05:58:50 PM 37.4831 -77.1672 95° East 533 613 35,000  Level Washington Center
Thu 05:59:50 PM 37.4667 -76.9786 96° East 542 624 35,000  Level Washington Center
Thu 06:00:50 PM 37.4581 -76.8058 94° East 545 627 35,000  Level Washington Center
Thu 06:01:50 PM 37.4575 -76.6200 90° East 545 627 35,000  Level Washington Center
Thu 06:02:50 PM 37.4758 -76.4292 83° East 540 621 35,000  Level Washington Center
Thu 06:03:50 PM 37.4956 -76.2411 82° East 540 621 35,000  Level Washington Center
Thu 06:04:50 PM 37.5236 -76.0369 80° East 533 613 35,000  Level Washington Center
Thu 06:05:50 PM 37.5847 -75.8694 65° Northeast 524 603 35,000  Level Washington Center
Thu 06:06:51 PM 37.6933 -75.7467 42° Northeast 504 580 35,000  Level Washington Center
Thu 06:07:50 PM 37.8164 -75.6522 31° Northeast 504 580 35,000  Level Washington Center
Thu 06:08:50 PM 37.9394 -75.5628 30° Northeast 504 580 35,000  Level Washington Center
Thu 06:09:50 PM 38.0606 -75.4653 32° Northeast 510 587 35,000  Level Washington Center
Thu 06:10:50 PM 38.1897 -75.3856 26° Northeast 510 587 35,000  Level Washington Center
Thu 06:11:50 PM 38.3144 -75.3033 27° Northeast 504 580 35,000  Level Washington Center
Thu 06:12:50 PM 38.4414 -75.2206 27° Northeast 504 580 35,000  Level Washington Center
Thu 06:13:50 PM 38.5664 -75.1403 27° Northeast 504 580 35,000  Level Washington Center
Thu 06:14:50 PM 38.6953 -75.0569 27° Northeast 509 586 35,000 -50 Level Washington Center
Thu 06:15:50 PM 38.8242 -74.9789 25° Northeast 509 586 34,900 -600 Descending Washington Center
Thu 06:16:50 PM 38.9508 -74.8950 27° Northeast 509 586 33,800 -1,884 Descending Washington Center
Thu 06:17:51 PM 39.0817 -74.8108 27° Northeast 509 586 31,100 -3,088 Descending Washington Center
Thu 06:19:41 PM 39.2819 -74.6036 39° Northeast 524 603 25,000 -3,459 Descending New York Center
Thu 06:20:41 PM 39.3878 -74.4886 40° Northeast 500 575 21,300 -3,458 Descending New York Center
Thu 06:21:39 PM 39.4914 -74.3756 40° Northeast 488 562 18,200 -1,678 Descending New York Center
Thu 06:22:39 PM 39.5778 -74.2778 41° Northeast 449 517 18,000 -198 Descending New York Center
Thu 06:23:40 PM 39.6639 -74.2578 10° North 377 434 17,800 -590 Descending New York Center
Thu 06:24:41 PM 39.7644 -74.2464 North 348 400 16,800 -1,388 Descending New York Center
Thu 06:25:41 PM 39.8572 -74.2106 17° North 334 384 15,000 -1,729 Descending New York Center
Thu 06:26:39 PM 39.8978 -74.1017 64° Northeast 292 336 13,400 -1,525 Descending New York Center
Thu 06:27:39 PM 39.9358 -74.0086 62° Northeast 314 361 12,000 -1,190 Descending New York Center
Thu 06:28:40 PM 39.9883 -73.9192 53° Northeast 314 361 11,000 -496 Descending New York Center
Thu 06:29:40 PM 40.0611 -73.8436 38° Northeast 300 345 11,000  Level New York Center
Thu 06:30:41 PM 40.1250 -73.7922 32° Northeast 305 351 11,000 -234 Level New York Center
Thu 06:30:57 PM 40.1500 -73.7667 38° Northeast 306 352 10,700 -1,026 Descending New York TRACON
Thu 06:31:57 PM 40.2167 -73.7667 360° North 278 320 9,700 -850 Descending New York TRACON
Thu 06:32:57 PM 40.2833 -73.8167 330° Northwest 294 338 9,000 -750 Descending New York TRACON
Thu 06:33:57 PM 40.3167 -73.7333 62° Northeast 319 367 8,200 -950 Descending New York TRACON
Thu 06:34:57 PM 40.3000 -73.6167 101° East 310 357 7,100 -1,212 Descending New York TRACON
Thu 06:35:41 PM 40.3058 -73.5633 82° East 257 296 6,100 -1,806 Descending New York Center
Thu 06:36:40 PM 40.3650 -73.5194 29° Northeast 230 265 4,000 -1,658 Descending New York Center
Thu 06:36:57 PM 40.3833 -73.5167 North 257 296 4,000  Level New York TRACON
Thu 06:37:57 PM 40.4500 -73.5500 339° North 243 280 4,000  Level New York TRACON
Thu 06:38:57 PM 40.5167 -73.5167 21° North 226 260 4,000 -333 Level New York TRACON
Thu 06:40:57 PM 40.6167 -73.4333 32° Northeast 219 252 3,000 -333 Descending New York TRACON
Thu 06:41:57 PM 40.6667 -73.4000 27° Northeast 223 257 3,000 50 Level New York TRACON
Thu 06:42:57 PM 40.7167 -73.4333 333° Northwest 217 250 3,100 -150 Climbing New York TRACON
Thu 06:43:57 PM 40.7667 -73.4833 323° Northwest 195 224 2,700 -500 Descending New York TRACON
Thu 06:44:57 PM 40.8000 -73.5333 311° West 188 216 2,100 -300 Descending New York TRACON
Thu 06:45:57 PM 40.7833 -73.6000 252° West 179 206 2,100  Level New York TRACON
Thu 06:46:57 PM 40.7667 -73.6667 252° West 183 211 2,100 -100 Level New York TRACON
Thu 06:47:57 PM 40.7167 -73.7000 207° Southwest 173 199 1,900 -200 Descending New York TRACON

Login

Don't have an account? Register now (free) for customized features, flight alerts, and more!